Latest Weather Observations for Wilsons Promontory

IDV60801

Issued at 12:05 am EDT Friday 31 October 2014 (issued every 30 minutes, with the page automatically refreshed every 10 minutes)

About weather observations | Map of weather stations | Latest weather observations for VIC | Other Formats
Station Details ID: 085096 Name: WILSONS PROMONTORY LIGHTHOUSE Lat: -39.13 Lon: 146.42 Height: 95.0 m
Data from the previous 72 hours. | See also: Recent months at Wilsons Promontory
Date/Time
EDT
Temp
°C
App
Temp
°C
Dew
Point
Rel
Hum
%
Delta-T
°C
Wind Press
QNH
hPa
Press
MSL
hPa
Rain
since 9 am
mm
Dir
 
Spd
km/h
Gust
km/h
Spd
kts
Gust
kts
31/12:00am 12.6 7.1 9.1 79 1.8 WNW 28 33 15 18 1012.9 1012.9 0.0
 
Date/Time
EDT
Temp
°C
App
Temp
°C
Dew
Point
Rel
Hum
%
Delta-T
°C
Wind Press
QNH
hPa
Press
MSL
hPa
Rain
since 9 am
mm
Dir
 
Spd
km/h
Gust
km/h
Spd
kts
Gust
kts
30/11:30pm 12.4 7.6 8.9 79 1.8 WNW 24 35 13 19 1013.0 - 0.0
30/11:00pm 12.5 7.2 8.6 77 2.0 WNW 26 35 14 19 1013.0 - 0.0
30/10:30pm 12.6 7.3 8.5 76 2.0 WNW 26 33 14 18 1013.0 - 0.0
30/10:00pm 12.9 6.8 8.4 74 2.2 W 30 41 16 22 1012.7 - 0.0
30/09:30pm 13.0 6.6 8.5 74 2.3 W 32 46 17 25 1012.6 - 0.0
30/09:00pm 13.1 6.8 9.0 76 2.1 W 32 43 17 23 1012.6 1012.6 0.0
30/08:30pm 13.1 7.9 9.0 76 2.1 W 26 39 14 21 1012.4 - 0.0
30/08:00pm 13.3 7.4 9.0 75 2.2 W 30 43 16 23 1012.3 - 0.0
30/07:30pm 13.6 7.3 9.1 74 2.3 W 32 43 17 23 1012.4 - 0.0
30/07:00pm 14.1 6.9 9.3 73 2.5 W 37 48 20 26 1012.1 - 0.0
30/06:30pm 14.3 7.9 9.3 72 2.6 W 33 46 18 25 1012.3 - 0.0
30/06:00pm 14.9 8.5 8.4 65 3.3 W 32 50 17 27 1012.1 1012.1 0.0
30/05:30pm 14.8 5.9 9.2 69 2.9 W 46 59 25 32 1011.8 - 0.0
30/05:00pm 14.8 7.2 9.0 68 3.0 W 39 57 21 31 1011.9 - 0.0
30/04:30pm 14.4 6.0 9.0 70 2.8 W 43 61 23 33 1012.1 - 0.0
30/04:00pm 14.5 6.0 8.5 67 3.0 W 43 61 23 33 1011.8 - 0.0
30/03:30pm 14.6 5.1 8.5 67 3.1 W 48 67 26 36 1011.8 - 0.0
30/03:05pm 14.7 6.7 9.1 69 2.9 W 41 59 22 32 1012.0 - 0.0
30/03:00pm 14.8 6.9 9.2 69 2.9 W 41 57 22 31 1012.2 1012.2 0.0
30/02:30pm 14.6 7.7 8.8 68 3.0 W 35 56 19 30 1012.3 - 0.0
30/02:20pm 14.7 8.6 8.4 66 3.2 WSW 30 54 16 29 1012.5 - 0.0
30/02:18pm 14.9 9.6 8.6 66 3.2 WSW 26 54 14 29 1012.5 - 0.0
30/02:00pm 14.5 6.6 8.0 65 3.3 W 39 54 21 29 1012.5 - 0.0
30/01:31pm 14.9 7.8 7.9 63 3.5 W 35 54 19 29 1012.4 - 0.0
30/01:30pm 15.1 7.6 8.1 63 3.5 W 37 54 20 29 1012.5 - 0.0
30/01:02pm 14.6 6.9 8.8 68 3.0 W 39 57 21 31 1012.5 - 0.0
30/01:00pm 14.5 6.0 8.7 68 2.9 W 43 57 23 31 1012.6 - 0.0
30/12:51pm 14.0 6.3 8.8 71 2.6 W 39 57 21 31 1012.6 - 0.0
30/12:30pm 12.8 6.0 9.1 78 1.9 W 35 50 19 27 1012.7 - 0.0
30/12:04pm 13.4 5.8 9.1 75 2.2 W 39 61 21 33 1013.0 - 0.0
30/12:00pm 13.4 5.4 8.9 74 2.3 W 41 56 22 30 1013.0 1013.0 0.0
30/11:30am 14.0 5.7 9.4 74 2.4 W 43 57 23 31 1013.0 - 0.0
30/11:00am 14.3 7.8 9.1 71 2.7 W 33 52 18 28 1013.0 - 0.0
30/10:35am 14.5 7.0 8.0 65 3.3 W 37 59 20 32 1013.0 - 0.0
30/10:30am 14.5 7.0 8.0 65 3.3 W 37 54 20 29 1013.2 - 0.0
30/10:00am 14.7 5.5 8.0 64 3.4 W 46 59 25 32 1012.9 - 0.0
30/09:33am 14.0 6.2 8.4 69 2.8 W 39 61 21 33 1013.0 - 0.0
30/09:30am 13.9 6.1 8.3 69 2.8 W 39 56 21 30 1013.1 - 0.0
30/09:00am 13.3 6.5 9.4 77 2.0 W 35 48 19 26 1013.0 1013.0 0.0
30/08:40am 13.2 7.0 9.3 77 2.0 W 32 54 17 29 1013.4 - 0.0
30/08:30am 13.1 6.9 9.2 77 2.0 W 32 43 17 23 1013.2 - 0.0
30/08:06am 13.1 7.6 9.0 76 2.1 W 28 46 15 25 1013.1 - 0.0
30/08:00am 13.2 8.4 8.9 75 2.2 W 24 43 13 23 1013.0 - 0.0
30/07:34am 13.3 6.3 8.4 72 2.5 W 35 54 19 29 1012.9 - 0.0
30/07:30am 13.3 6.7 8.4 72 2.5 W 33 48 18 26 1012.8 - 0.0
30/07:12am 13.3 6.1 7.7 69 2.8 W 35 56 19 30 1012.5 - 0.0
30/07:00am 13.5 7.1 8.6 72 2.5 W 32 48 17 26 1012.6 - 0.0
30/06:30am 13.0 5.8 9.3 78 1.9 W 37 54 20 29 1012.2 - 0.0
30/06:00am 13.1 6.4 9.5 79 1.8 W 35 56 19 30 1012.3 1012.3 0.0
30/05:45am 12.9 6.8 9.7 81 1.6 W 32 50 17 27 1011.9 - 0.0
30/05:30am 13.0 7.0 10.0 82 1.6 W 32 48 17 26 1012.0 - 0.0
30/05:28am 13.0 7.4 10.2 83 1.5 W 30 48 16 26 1012.0 - 0.0
30/05:00am 13.0 6.4 10.0 82 1.6 W 35 50 19 27 1012.2 - 0.0
30/04:30am 13.3 6.3 10.1 81 1.7 W 37 56 20 30 1012.0 - 0.0
30/04:23am 13.2 6.2 10.0 81 1.7 W 37 56 20 30 1012.0 - 0.0
30/04:00am 13.2 6.5 9.8 80 1.8 W 35 50 19 27 1012.2 - 0.0
30/03:35am 13.2 7.2 10.0 81 1.7 W 32 52 17 28 1012.2 - 0.0
30/03:30am 13.2 7.6 10.0 81 1.7 W 30 44 16 24 1012.5 - 0.0
30/03:00am 13.2 7.2 10.0 81 1.7 W 32 46 17 25 1012.5 1012.5 0.0
30/02:33am 13.2 5.8 9.8 80 1.8 W 39 57 21 31 1012.6 - 0.0
30/02:30am 13.2 5.0 9.8 80 1.8 W 43 57 23 31 1012.6 - 0.0
30/02:01am 13.2 6.7 10.2 82 1.6 W 35 59 19 32 1012.8 - 0.0
30/02:00am 13.2 7.0 10.2 82 1.6 W 33 50 18 27 1013.0 - 0.0
30/01:30am 13.2 6.3 10.2 82 1.6 W 37 56 20 30 1013.4 - 0.0
30/01:14am 13.2 5.5 10.2 82 1.6 W 41 59 22 32 1013.3 - 0.0
30/01:00am 13.3 6.0 10.3 82 1.6 W 39 56 21 30 1013.5 - 0.0
30/12:35am 13.2 6.3 10.2 82 1.6 W 37 56 20 30 1013.8 - 0.0
30/12:30am 13.2 6.3 10.2 82 1.6 W 37 50 20 27 1013.7 - 0.0
30/12:00am 13.3 6.8 10.3 82 1.6 W 35 57 19 31 1013.9 1013.9 0.0
 
Date/Time
EDT
Temp
°C
App
Temp
°C
Dew
Point
Rel
Hum
%
Delta-T
°C
Wind Press
QNH
hPa
Press
MSL
hPa
Rain
since 9 am
mm
Dir
 
Spd
km/h
Gust
km/h
Spd
kts
Gust
kts
29/11:31pm 13.3 6.6 9.7 79 1.9 W 35 54 19 29 1013.9 - 0.0
29/11:30pm 13.3 6.6 9.7 79 1.9 W 35 52 19 28 1013.9 - 0.0
29/11:03pm 13.5 6.8 9.7 78 2.0 W 35 54 19 29 1014.1 - 0.0
29/11:00pm 13.5 6.4 9.7 78 2.0 W 37 54 20 29 1013.9 - 0.0
29/10:31pm 13.4 5.9 9.6 78 2.0 W 39 57 21 31 1014.2 - 0.0
29/10:30pm 13.5 6.1 9.7 78 2.0 W 39 52 21 28 1014.2 - 0.0
29/10:00pm 13.3 6.3 9.9 80 1.8 W 37 61 20 33 1014.2 - 0.0
29/09:42pm 13.4 7.2 10.0 80 1.8 W 33 52 18 28 1014.4 - 0.0
29/09:30pm 13.3 7.1 9.9 80 1.8 W 33 46 18 25 1014.4 - 0.0
29/09:00pm 13.3 6.9 9.5 78 1.9 W 33 50 18 27 1014.2 1014.2 0.0
29/08:33pm 13.4 7.1 9.6 78 2.0 W 33 52 18 28 1014.0 - 0.0
29/08:30pm 13.4 6.7 9.5 77 2.0 W 35 52 19 28 1013.9 - 0.0
29/08:03pm 13.5 5.6 9.2 75 2.2 W 41 59 22 32 1013.6 - 0.0
29/08:00pm 13.5 5.2 9.2 75 2.2 W 43 59 23 32 1013.6 - 0.0
29/07:30pm 13.5 6.4 9.6 77 2.0 W 37 56 20 30 1013.9 - 0.0
29/07:01pm 13.6 6.8 9.3 75 2.2 W 35 56 19 30 1013.7 - 0.0
29/07:00pm 13.6 6.8 9.3 75 2.2 W 35 50 19 27 1013.8 - 0.0
29/06:30pm 13.6 7.3 9.1 74 2.3 W 32 50 17 27 1013.8 - 0.0
29/06:23pm 13.9 7.4 9.1 73 2.4 W 33 52 18 28 1013.9 - 0.0
29/06:00pm 14.2 7.4 9.2 72 2.6 W 35 50 19 27 1013.7 1013.7 0.0
29/05:38pm 13.9 7.3 8.7 71 2.6 W 33 52 18 28 1013.8 - 0.0
29/05:30pm 14.4 6.8 9.2 71 2.7 W 39 52 21 28 1013.5 - 0.0
29/05:07pm 14.5 5.8 8.5 67 3.0 W 44 63 24 34 1013.2 - 0.0
29/05:00pm 14.5 5.9 8.7 68 2.9 W 44 61 24 33 1013.3 - 0.0
29/04:30pm 14.5 5.5 8.9 69 2.9 W 46 65 25 35 1013.4 - 0.0
29/04:06pm 14.6 4.8 8.5 67 3.1 W 50 69 27 37 1013.4 - 0.0
29/04:00pm 14.4 4.2 8.6 68 2.9 W 52 69 28 37 1013.4 - 0.0
29/03:35pm 14.2 4.4 8.8 70 2.7 W 50 69 27 37 1013.7 - 0.0
29/03:30pm 14.3 4.2 8.9 70 2.8 W 52 69 28 37 1013.6 - 0.0
29/03:00pm 14.4 4.2 8.6 68 2.9 W 52 80 28 43 1013.7 1013.7 0.0
29/02:30pm 14.4 3.3 8.1 66 3.2 W 56 76 30 41 1013.7 - 0.0
29/02:00pm 14.3 4.2 8.9 70 2.8 W 52 74 28 40 1014.4 - 0.0
29/01:30pm 13.9 5.4 9.3 74 2.4 W 44 63 24 34 1014.5 - 0.0
29/01:00pm 14.2 5.5 8.4 68 2.9 W 44 63 24 34 1014.8 - 0.0
29/12:30pm 14.2 6.1 8.8 70 2.7 W 41 63 22 34 1015.1 - 0.0
29/12:01pm 13.9 6.0 9.3 74 2.4 W 41 59 22 32 1015.4 - 0.0
29/12:00pm 13.8 5.5 9.3 74 2.3 W 43 59 23 32 1015.4 1015.4 0.0
29/11:41am 12.7 4.3 8.8 77 2.0 W 43 61 23 33 1015.5 - 0.0
29/11:30am 12.2 2.6 8.1 76 2.0 W 48 63 26 34 1015.5 - 0.0
29/11:00am 13.3 4.6 7.7 69 2.8 W 43 63 23 34 1015.6 - 0.0
29/10:32am 13.1 5.6 7.8 70 2.6 W 37 61 20 33 1015.7 - 0.0
29/10:30am 13.4 6.2 7.6 68 2.9 W 35 52 19 28 1015.7 - 0.0
29/10:09am 14.0 7.3 8.0 67 3.0 W 33 52 18 28 1015.9 - 0.0
29/10:00am 13.8 7.2 7.8 67 3.0 W 32 46 17 25 1015.9 - 0.0
29/09:34am 13.7 7.3 8.5 71 2.6 W 32 52 17 28 1015.8 - 0.0
29/09:30am 13.7 7.3 8.7 72 2.5 W 32 44 17 24 1015.9 - 0.0
29/09:00am 13.1 5.9 7.8 70 2.6 W 35 48 19 26 1015.8 1015.8 0.8
29/08:30am 13.0 6.2 7.5 69 2.7 W 33 46 18 25 1015.9 - 0.8
29/08:00am 12.7 5.8 6.5 66 3.0 W 32 43 17 23 1015.8 - 0.8
29/07:54am 12.7 5.2 6.5 66 3.0 W 35 54 19 29 1015.7 - 0.8
29/07:30am 12.4 6.0 7.1 70 2.6 W 30 43 16 23 1015.6 - 0.8
29/07:00am 12.2 4.7 6.3 67 2.8 W 35 50 19 27 1015.3 - 0.8
29/06:35am 12.3 5.5 6.8 69 2.6 W 32 50 17 27 1015.1 - 0.8
29/06:30am 12.3 4.8 6.4 67 2.8 W 35 50 19 27 1014.9 - 0.8
29/06:00am 12.3 4.1 6.4 67 2.8 W 39 52 21 28 1014.5 1014.5 0.8
29/05:42am 12.2 6.1 6.5 68 2.7 W 28 46 15 25 1014.6 - 0.8
29/05:30am 12.2 4.6 6.0 66 2.9 W 35 48 19 26 1014.4 - 0.8
29/05:23am 12.2 5.2 6.0 66 2.9 W 32 50 17 27 1014.4 - 0.8
29/05:00am 12.2 3.6 6.3 67 2.8 W 41 52 22 28 1014.0 - 0.8
29/04:37am 12.2 4.8 6.9 70 2.6 W 35 56 19 30 1013.8 - 0.8
29/04:30am 12.1 4.3 6.6 69 2.6 W 37 54 20 29 1013.8 - 0.8
29/04:10am 11.9 3.3 6.6 70 2.5 W 41 59 22 32 1013.7 - 0.8
29/04:00am 12.1 3.4 6.2 67 2.8 W 41 57 22 31 1013.5 - 0.8
29/03:48am 12.2 4.7 6.5 68 2.7 W 35 54 19 29 1013.7 - 0.8
29/03:30am 12.1 3.1 6.6 69 2.6 W 43 57 23 31 1013.4 - 0.8
29/03:00am 12.0 1.3 6.5 69 2.6 W 52 72 28 39 1013.0 1013.0 0.8
29/02:47am 11.9 1.2 6.6 70 2.5 W 52 70 28 38 1012.7 - 0.8
29/02:30am 12.0 0.8 5.9 66 2.9 W 54 70 29 38 1012.6 - 0.8
29/02:21am 12.0 1.6 6.1 67 2.8 W 50 69 27 37 1012.7 - 0.8
29/02:00am 12.1 0.4 6.4 68 2.7 W 57 74 31 40 1012.5 - 0.8
29/01:38am 12.0 0.2 5.9 66 2.9 W 57 76 31 41 1012.5 - 0.8
29/01:30am 11.8 -0.5 5.2 64 3.1 W 59 76 32 41 1012.4 - 0.8
29/01:04am 11.8 1.0 5.9 67 2.8 W 52 76 28 41 1012.8 - 0.8
29/01:00am 11.8 1.7 5.9 67 2.8 W 48 63 26 34 1012.8 - 0.8
29/12:30am 11.8 0.9 5.7 66 2.9 W 52 76 28 41 1012.8 - 0.8
29/12:00am 12.0 1.7 6.5 69 2.6 W 50 70 27 38 1012.6 1012.6 0.8
 
Date/Time
EDT
Temp
°C
App
Temp
°C
Dew
Point
Rel
Hum
%
Delta-T
°C
Wind Press
QNH
hPa
Press
MSL
hPa
Rain
since 9 am
mm
Dir
 
Spd
km/h
Gust
km/h
Spd
kts
Gust
kts
28/11:30pm 12.1 0.0 6.2 67 2.8 W 59 78 32 42 1011.9 - 0.8
28/11:03pm 12.0 -1.4 5.4 64 3.1 W 65 83 35 45 1011.8 - 0.8
28/11:00pm 12.0 -1.8 5.2 63 3.1 W 67 83 36 45 1011.6 - 0.8
28/10:30pm 12.2 -0.1 7.1 71 2.5 W 61 83 33 45 1011.7 - 0.8
28/10:00pm 11.7 -1.3 7.0 73 2.3 W 65 87 35 47 1011.2 - 0.8
28/09:30pm 12.2 -1.4 6.0 66 2.9 W 67 93 36 50 1010.9 - 0.8
28/09:00pm 12.3 -1.8 5.7 64 3.1 W 69 91 37 49 1010.3 1010.3 0.8
28/08:30pm 12.2 -2.9 5.4 63 3.2 W 74 98 40 53 1009.6 - 0.8
28/08:02pm 12.2 -1.9 5.4 63 3.2 W 69 87 37 47 1010.2 - 0.8
28/08:00pm 12.2 -2.1 5.4 63 3.2 W 70 87 38 47 1010.1 - 0.8
28/07:30pm 12.4 -0.6 5.3 62 3.3 W 63 87 34 47 1009.8 - 0.8
28/07:00pm 12.6 -1.1 5.8 63 3.2 W 67 95 36 51 1009.2 - 0.8
28/06:30pm 12.5 -1.6 6.5 67 2.9 W 70 98 38 53 1008.4 - 0.8
28/06:21pm 12.4 0.3 6.0 65 3.0 W 59 93 32 50 1009.0 - 0.8
28/06:10pm 12.1 -4.3 6.6 69 2.6 W 82 102 44 55 1008.2 - 0.8
28/06:08pm 12.2 -4.8 6.5 68 2.7 W 85 102 46 55 1008.0 - 0.8
28/06:05pm 12.5 1.0 7.0 69 2.7 W 57 98 31 53 1008.7 - 0.8
28/06:00pm 12.4 -3.5 6.9 69 2.7 W 80 98 43 53 1008.0 1008.0 0.8
28/05:30pm 12.5 -1.4 6.5 67 2.9 W 69 95 37 51 1007.7 - 0.8
28/05:00pm 12.8 -1.4 5.0 59 3.6 W 69 89 37 48 1007.6 - 0.8
28/04:30pm 13.2 -3.6 4.6 56 4.0 W 82 106 44 57 1007.2 - 0.8
28/04:00pm 13.0 -3.2 7.2 68 2.8 W 82 106 44 57 1006.4 - 0.8
28/03:30pm 12.7 -1.0 7.4 70 2.6 W 69 98 37 53 1006.5 - 0.8
28/03:13pm 13.2 -2.2 7.4 68 2.8 W 78 100 42 54 1006.5 - 0.8
28/03:12pm 13.2 -3.2 7.4 68 2.8 W 83 100 45 54 1006.2 - 0.8
28/03:00pm 13.1 1.5 8.2 72 2.4 W 59 82 32 44 1006.9 1006.8 0.8
28/02:30pm 12.5 1.2 8.0 74 2.2 W 57 91 31 49 1006.5 - 0.8
28/02:00pm 12.6 0.5 7.9 73 2.3 W 61 89 33 48 1006.8 - 0.6
28/01:30pm 13.6 -0.5 6.5 62 3.4 W 70 93 38 50 1006.0 - 0.6
28/01:11pm 13.8 -1.8 6.4 61 3.6 W 78 96 42 52 1005.6 - 0.6
28/01:00pm 14.3 2.4 6.9 61 3.6 W 59 91 32 49 1006.4 - 0.6
28/12:30pm 13.9 0.3 6.0 59 3.8 W 67 98 36 53 1005.6 - 0.6
28/12:00pm 13.9 1.3 7.4 65 3.2 W 63 96 34 52 1005.2 1005.2 0.6
28/11:53am 13.6 1.4 7.4 66 3.0 W 61 96 33 52 1005.3 - 0.6
28/11:30am 13.8 -2.0 7.6 66 3.1 W 80 104 43 56 1004.6 - 0.6
28/11:00am 13.6 0.4 8.0 69 2.8 W 67 93 36 50 1004.2 - 0.6
28/10:30am 13.0 1.4 9.8 81 1.6 W 61 95 33 51 1004.0 - 0.6
28/10:26am 13.0 3.1 9.8 81 1.6 W 52 95 28 51 1004.4 - 0.6
28/10:00am 12.3 -2.0 10.2 87 1.1 W 76 115 41 62 1003.7 - 0.6
28/09:46am 12.4 -0.6 10.1 86 1.2 W 69 117 37 63 1003.2 - 0.6
28/09:30am 12.3 1.1 9.9 85 1.2 W 59 95 32 51 1003.6 - 0.4
28/09:00am 12.1 1.3 9.8 86 1.2 W 57 98 31 53 1003.8 1003.8 11.8
28/08:53am 12.0 -0.4 9.7 86 1.2 W 65 115 35 62 1003.7 - 11.8
28/08:51am 12.0 4.2 9.7 86 1.2 W 41 115 22 62 1004.1 - 11.8
28/08:44am 11.9 -1.3 9.5 85 1.2 W 69 115 37 62 1003.0 - 11.8
28/08:39am 11.7 -2.2 9.1 84 1.3 W 72 96 39 52 1003.2 - 11.6
28/08:30am 12.1 2.8 9.1 82 1.5 W 48 83 26 45 1003.4 - 11.2
28/08:00am 12.1 2.5 7.8 75 2.1 W 48 85 26 46 1003.5 - 11.2
28/07:30am 12.8 0.8 8.1 73 2.3 WNW 61 107 33 58 1002.9 - 11.2
28/07:00am 12.7 1.4 7.8 72 2.4 WNW 57 107 31 58 1002.3 - 11.2
28/06:51am 12.7 1.9 7.6 71 2.5 W 54 111 29 60 1002.7 - 11.2
28/06:45am 12.6 -3.2 7.5 71 2.5 WNW 80 102 43 55 1002.3 - 11.2
28/06:33am 12.4 2.3 7.5 72 2.4 WNW 50 109 27 59 1001.9 - 11.2
28/06:30am 12.4 3.1 7.5 72 2.4 WNW 46 85 25 46 1002.6 - 11.2
28/06:00am 12.2 1.3 7.3 72 2.4 W 54 85 29 46 1002.9 1002.9 11.2
28/05:30am 12.3 0.8 7.2 71 2.5 W 57 102 31 55 1002.7 - 11.2
28/05:23am 12.2 0.7 7.1 71 2.5 W 57 96 31 52 1002.4 - 11.2
28/05:00am 11.9 0.3 6.8 71 2.4 WNW 57 89 31 48 1002.6 - 11.2
28/04:57am 11.9 -0.8 6.8 71 2.4 NW 63 89 34 48 1002.4 - 11.2
28/04:30am 12.0 2.1 6.5 69 2.6 W 48 85 26 46 1002.8 - 11.2
28/04:23am 11.9 2.8 6.6 70 2.5 WNW 44 104 24 56 1003.0 - 11.2
28/04:13am 11.9 -3.3 6.8 71 2.4 WNW 76 95 41 51 1002.3 - 11.2
28/04:06am 11.9 1.2 6.6 70 2.5 WNW 52 106 28 57 1003.2 - 11.2
28/04:03am 11.9 -3.3 6.6 70 2.5 WNW 76 106 41 57 1002.4 - 11.2
28/04:02am 11.9 1.2 6.6 70 2.5 WNW 52 104 28 56 1002.9 - 11.2
28/04:00am 11.9 1.6 6.6 70 2.5 WNW 50 85 27 46 1003.7 - 11.2
28/03:50am 11.8 2.3 6.5 70 2.5 WNW 46 72 25 39 1003.8 - 11.2
28/03:30am 11.9 1.6 6.4 69 2.6 W 50 78 27 42 1003.7 - 11.2
28/03:00am 12.1 1.8 6.4 68 2.7 W 50 89 27 48 1004.0 1004.0 11.2
28/02:30am 11.8 2.1 5.9 67 2.8 W 46 74 25 40 1004.9 - 11.2
28/02:21am 11.9 1.1 6.0 67 2.8 W 52 93 28 50 1004.8 - 11.2
28/02:07am 12.1 -2.9 5.7 65 3.0 W 74 95 40 51 1004.3 - 11.2
28/02:00am 12.0 0.7 5.6 65 3.0 W 54 82 29 44 1004.7 - 11.2
28/01:30am 11.7 0.9 5.8 67 2.8 W 52 83 28 45 1005.8 - 11.2
28/01:00am 11.7 0.0 6.4 70 2.5 W 57 80 31 43 1006.1 - 11.2
28/12:30am 12.0 -0.8 6.5 69 2.6 W 63 82 34 44 1006.2 - 11.2

Other Formats:

Comma delimited format used in spreadsheet applications
http://www.bom.gov.au/fwo/IDV60801/IDV60801.94893.axf

JavaScript Object Notation format (JSON) in row-major order
http://www.bom.gov.au/fwo/IDV60801/IDV60801.94893.json